Time;durP1;ratioP1;P1;durP2;ratioP2;P2;SDS_P1;SDS_P2;PMS_P1;PMS_P2;Temp;Humidity;BMP_temperature;BMP_pressure;BME280_temperature;BME280_humidity;BME280_pressure;Samples;Min_cycle;Max_cycle;Signal;HPM_P1;HPM_P2
2022/01/30 04:32:52;;;;;;;4.73;3.00;;;;;;;11.83;56.98;99699.28;7240959;23;20236;-86
2022/01/30 04:36:19;;;;;;;2.70;2.40;;;;;;;11.98;57.34;99722.53;6926454;28;20208;-86
2022/01/30 04:40:11;;;;;;;5.50;2.87;;;;;;;11.85;57.49;99716.13;6929394;28;20218;-85
2022/01/30 04:58:53;;;;;;;3.70;2.67;;;;;;;11.33;58.34;99727.09;6900272;28;20212;-86
2022/01/30 05:02:34;;;;;;;5.63;2.93;;;;;;;11.59;57.45;99707.72;6900345;28;20220;-85
2022/01/30 05:06:03;;;;;;;5.47;3.30;;;;;;;11.71;57.18;99723.28;6900204;28;20231;-85
2022/01/30 05:09:27;;;;;;;7.10;3.00;;;;;;;11.80;56.84;99724.00;6901744;28;20212;-85
2022/01/30 05:12:53;;;;;;;8.63;3.67;;;;;;;11.17;59.08;99719.19;6902408;28;20596;-84
2022/01/30 05:16:17;;;;;;;6.70;3.10;;;;;;;11.50;57.52;99723.16;6902235;28;20215;-85
2022/01/30 05:19:39;;;;;;;7.23;3.73;;;;;;;11.52;57.60;99742.72;6902227;28;20200;-84
2022/01/30 05:23:01;;;;;;;7.03;3.50;;;;;;;11.74;56.71;99733.69;6901699;28;20221;-84
2022/01/30 05:26:26;;;;;;;5.77;3.40;;;;;;;11.63;55.61;99726.06;6901892;28;20208;-85
2022/01/30 05:29:48;;;;;;;10.30;3.57;;;;;;;11.37;55.63;99697.84;6902485;28;20192;-85
2022/01/30 05:33:15;;;;;;;7.07;3.73;;;;;;;11.51;55.54;99745.63;6901100;28;20236;-85
2022/01/30 05:36:39;;;;;;;7.67;3.60;;;;;;;11.79;55.74;99763.66;6901654;28;20298;-85
2022/01/30 05:40:01;;;;;;;9.93;4.10;;;;;;;11.52;55.63;99768.91;6902633;28;20222;-85
2022/01/30 05:43:27;;;;;;;8.53;4.07;;;;;;;10.83;55.15;99680.31;6901931;28;20224;-84
2022/01/30 05:46:54;;;;;;;10.37;3.80;;;;;;;11.31;55.57;99748.06;6902128;28;20191;-85
2022/01/30 05:50:16;;;;;;;10.43;3.70;;;;;;;11.38;56.24;99778.69;6899326;28;20203;-84
2022/01/30 05:53:38;;;;;;;10.97;3.63;;;;;;;11.00;57.02;99785.19;6897496;28;20207;-85
2022/01/30 05:57:01;;;;;;;6.73;3.60;;;;;;;11.02;56.87;99766.09;6900736;28;20248;-84
2022/01/30 06:00:24;;;;;;;7.60;3.70;;;;;;;11.40;56.17;99803.63;6902141;28;20701;-86
2022/01/30 06:03:46;;;;;;;7.43;3.43;;;;;;;11.33;55.91;99796.47;6901188;28;20272;-85
2022/01/30 06:07:10;;;;;;;8.80;3.80;;;;;;;11.61;55.00;99817.25;6900910;28;20215;-85
2022/01/30 06:10:31;;;;;;;8.60;3.67;;;;;;;10.78;57.26;99813.03;6900853;28;20255;-85
2022/01/30 06:13:53;;;;;;;10.77;3.67;;;;;;;10.81;57.13;99803.75;6900868;28;20218;-85
2022/01/30 06:17:16;;;;;;;9.37;4.20;;;;;;;11.30;56.36;99829.22;6901027;28;20232;-85
2022/01/30 06:20:38;;;;;;;6.77;3.20;;;;;;;11.18;56.50;99836.09;6901658;28;20242;-86
2022/01/30 06:24:00;;;;;;;8.40;3.60;;;;;;;11.43;55.86;99838.38;6899284;28;20302;-83
2022/01/30 06:27:21;;;;;;;10.63;3.77;;;;;;;11.13;56.51;99835.81;6897872;28;20587;-85
2022/01/30 06:30:47;;;;;;;11.07;4.13;;;;;;;11.34;55.65;99804.38;6897080;28;20282;-85
2022/01/30 06:34:11;;;;;;;9.13;4.00;;;;;;;11.20;56.52;99837.59;6900789;28;20215;-87
2022/01/30 06:37:33;;;;;;;11.30;4.63;;;;;;;11.38;56.19;99830.00;6903453;28;20247;-91
2022/01/30 06:40:55;;;;;;;7.93;3.90;;;;;;;11.16;56.21;99838.97;6904389;28;20608;-90
2022/01/30 06:44:17;;;;;;;11.60;4.40;;;;;;;10.58;56.81;99781.38;6899737;28;20203;-92
2022/01/30 06:47:42;;;;;;;7.23;3.60;;;;;;;11.07;56.37;99871.63;6905874;28;20212;-92
2022/01/30 06:51:06;;;;;;;9.50;4.03;;;;;;;10.37;56.06;99809.00;6901508;28;20238;-86
2022/01/30 06:54:27;;;;;;;9.93;4.00;;;;;;;10.91;54.92;99825.91;6896537;28;20204;-86
2022/01/30 06:57:49;;;;;;;5.37;3.57;;;;;;;11.21;54.27;99852.78;6918483;28;20292;-86
2022/01/30 07:01:10;;;;;;;7.80;4.10;;;;;;;10.66;55.12;99871.13;6926610;28;20235;-86
2022/01/30 07:04:32;;;;;;;8.80;3.57;;;;;;;10.50;54.98;99840.75;6925940;28;20207;-85
2022/01/30 07:07:55;;;;;;;6.20;3.10;;;;;;;10.75;53.87;99802.59;6925550;28;20203;-86
2022/01/30 07:11:17;;;;;;;10.37;3.43;;;;;;;11.06;53.26;99843.81;6926692;28;20223;-86
2022/01/30 07:14:39;;;;;;;6.83;3.63;;;;;;;11.11;53.11;99898.06;6926779;28;20203;-85
2022/01/30 07:18:00;;;;;;;6.77;3.30;;;;;;;10.79;53.57;99901.03;6928395;28;20224;-86
2022/01/30 07:21:22;;;;;;;12.60;3.80;;;;;;;11.16;53.24;99911.03;6923890;28;20226;-84
2022/01/30 07:24:45;;;;;;;11.17;3.70;;;;;;;11.13;53.00;99911.38;6908130;28;20677;-85
2022/01/30 07:28:13;;;;;;;5.53;3.67;;;;;;;10.65;52.98;99901.84;6887077;28;20204;-85
2022/01/30 07:31:35;;;;;;;7.47;3.50;;;;;;;11.08;52.95;99928.13;6905008;28;20240;-87
2022/01/30 07:34:57;;;;;;;6.67;3.90;;;;;;;10.22;52.05;99789.22;6900783;28;20203;-86
2022/01/30 07:38:19;;;;;;;9.63;3.63;;;;;;;10.73;53.42;99917.09;6892284;28;20223;-84
2022/01/30 07:42:00;;;;;;;7.17;3.60;;;;;;;11.09;52.45;99934.38;6893812;28;20376;-83
2022/01/30 07:45:24;;;;;;;8.60;3.40;;;;;;;10.21;52.91;99891.81;6811334;29;20217;-85
2022/01/30 07:49:31;;;;;;;9.63;3.80;;;;;;;10.85;52.77;99956.13;6812323;29;20397;-83
2022/01/30 07:52:53;;;;;;;7.73;3.43;;;;;;;10.61;52.64;99884.31;6808745;29;20372;-86
2022/01/30 07:56:14;;;;;;;11.03;3.87;;;;;;;10.97;52.54;99943.91;6817732;29;20211;-85
2022/01/30 07:59:37;;;;;;;7.37;3.93;;;;;;;10.75;52.42;99918.59;6816518;29;20261;-85
2022/01/30 08:02:59;;;;;;;8.47;3.53;;;;;;;10.88;52.28;99915.31;6815529;29;20226;-86
2022/01/30 08:06:21;;;;;;;10.97;4.23;;;;;;;10.42;52.87;99851.59;6832158;29;20205;-86
2022/01/30 08:09:42;;;;;;;10.10;3.67;;;;;;;10.64;53.68;99942.47;6842038;29;20205;-85
2022/01/30 08:13:04;;;;;;;9.10;3.87;;;;;;;10.80;54.20;99945.88;6843733;29;20331;-88
2022/01/30 08:16:27;;;;;;;10.13;4.33;;;;;;;10.85;53.97;99915.66;6838684;29;20732;-88
2022/01/30 08:19:49;;;;;;;10.03;4.23;;;;;;;10.80;54.30;99912.69;6821236;29;20260;-87
2022/01/30 08:23:12;;;;;;;7.87;4.43;;;;;;;10.43;55.08;99926.91;6873559;28;20221;-87
2022/01/30 08:26:34;;;;;;;8.97;3.83;;;;;;;10.21;55.88;99911.50;6912628;28;20217;-86
2022/01/30 08:29:56;;;;;;;10.00;3.90;;;;;;;10.61;55.07;99934.69;6904479;28;20204;-87
2022/01/30 08:33:19;;;;;;;9.03;3.77;;;;;;;10.19;55.42;99934.25;6926946;28;20250;-85
2022/01/30 08:36:41;;;;;;;12.80;4.20;;;;;;;10.34;54.58;99911.78;6926485;28;20203;-85
2022/01/30 08:40:04;;;;;;;9.03;4.13;;;;;;;10.55;54.63;99908.44;6927753;28;20220;-87
2022/01/30 08:43:26;;;;;;;10.00;3.23;;;;;;;10.49;54.44;99918.09;6887300;28;20282;-84
2022/01/30 08:46:47;;;;;;;15.73;4.40;;;;;;;12.37;49.09;99854.59;6869571;28;20211;-84
2022/01/30 08:50:11;;;;;;;10.43;3.30;;;;;;;12.73;46.93;99917.63;6869381;28;20209;-85
2022/01/30 08:53:33;;;;;;;9.90;3.77;;;;;;;12.64;46.63;99891.75;6870223;28;20213;-84
2022/01/30 08:56:54;;;;;;;7.37;3.33;;;;;;;13.50;44.44;99887.75;6870014;28;20209;-82
2022/01/30 09:00:17;;;;;;;8.90;3.50;;;;;;;14.36;42.46;99912.50;6871392;28;20229;-81
2022/01/30 09:03:39;;;;;;;11.67;3.50;;;;;;;13.07;42.31;99894.28;6870288;28;20295;-82
2022/01/30 09:07:02;;;;;;;8.43;3.53;;;;;;;11.92;43.10;99793.56;6870814;28;20322;-84
2022/01/30 09:10:23;;;;;;;13.97;4.07;;;;;;;11.47;46.69;99917.16;6870281;28;20569;-86
2022/01/30 09:13:45;;;;;;;8.17;3.50;;;;;;;12.13;44.57;99928.78;6869794;28;20201;-84
2022/01/30 09:17:12;;;;;;;13.47;3.70;;;;;;;12.02;44.63;99942.75;6875636;28;20663;-84
2022/01/30 09:20:34;;;;;;;11.37;3.10;;;;;;;11.17;44.56;99866.81;6897633;28;20232;-84
2022/01/30 09:23:57;;;;;;;8.60;3.87;;;;;;;11.14;46.13;99948.16;6897237;28;20251;-86
2022/01/30 09:27:20;;;;;;;8.27;3.37;;;;;;;10.09;47.46;99882.44;6897774;28;20295;-87
2022/01/30 09:30:44;;;;;;;6.73;3.67;;;;;;;10.41;47.95;99955.06;6894001;28;20232;-88
2022/01/30 09:34:05;;;;;;;7.97;3.20;;;;;;;10.50;47.44;99965.63;6894020;28;20200;-89
2022/01/30 09:37:27;;;;;;;10.73;4.03;;;;;;;10.04;47.87;99904.50;6894345;28;20211;-89
2022/01/30 09:40:52;;;;;;;11.00;3.20;;;;;;;10.46;47.20;99947.28;6893659;28;20721;-89
2022/01/30 09:44:14;;;;;;;9.27;3.33;;;;;;;10.99;46.81;99972.38;6892179;28;20231;-90
2022/01/30 09:47:35;;;;;;;11.93;3.97;;;;;;;10.69;46.84;99962.47;6893426;28;20203;-89
2022/01/30 09:50:59;;;;;;;6.13;3.20;;;;;;;10.54;46.97;99909.47;6894789;28;20252;-89
2022/01/30 09:54:21;;;;;;;10.17;3.57;;;;;;;10.55;47.20;99879.63;6886042;28;20284;-88
2022/01/30 09:57:44;;;;;;;8.90;3.37;;;;;;;11.37;47.23;99968.72;6868619;28;20225;-88
2022/01/30 10:01:06;;;;;;;14.30;4.80;;;;;;;10.59;47.45;99923.25;6869066;28;20235;-89
2022/01/30 10:04:27;;;;;;;12.90;3.87;;;;;;;10.98;47.44;99972.59;6870186;28;20209;-89
2022/01/30 10:07:50;;;;;;;12.30;3.30;;;;;;;10.47;48.13;99957.91;6874044;28;20684;-88
2022/01/30 10:11:31;;;;;;;9.13;3.57;;;;;;;10.88;47.92;99978.22;6876028;28;20308;-91
2022/01/30 10:15:00;;;;;;;9.50;3.47;;;;;;;10.61;48.33;99961.69;6877971;28;20204;-89
2022/01/30 10:18:24;;;;;;;11.40;4.10;;;;;;;10.75;48.44;99953.66;6877539;28;20223;-89
2022/01/30 10:21:46;;;;;;;9.33;3.43;;;;;;;9.90;50.11;99907.91;6879256;28;20225;-89
2022/01/30 10:25:19;;;;;;;12.20;5.17;;;;;;;10.58;50.08;100013.28;6878711;28;20232;-88
2022/01/30 10:28:42;;;;;;;10.27;4.40;;;;;;;10.13;51.57;99995.09;6879096;28;20665;-89
2022/01/30 10:32:10;;;;;;;16.13;4.50;;;;;;;10.51;50.93;100015.81;6878395;28;20228;-87
2022/01/30 10:35:47;;;;;;;13.17;3.70;;;;;;;10.56;49.25;100009.94;6879431;28;20616;-90
2022/01/30 10:39:13;;;;;;;13.07;3.93;;;;;;;10.62;48.39;99920.22;6878314;28;20270;-91
2022/01/30 10:42:39;;;;;;;10.73;3.93;;;;;;;9.96;49.53;99926.06;6879105;28;20251;-89
2022/01/30 10:46:17;;;;;;;14.53;4.33;;;;;;;10.79;49.05;99981.97;6879044;28;20208;-90
2022/01/30 10:49:46;;;;;;;16.90;5.20;;;;;;;10.72;49.34;99991.81;6881879;28;20208;-89
2022/01/30 10:53:17;;;;;;;13.47;4.90;;;;;;;11.01;48.62;100005.44;6881418;28;20225;-88
2022/01/30 10:56:40;;;;;;;10.93;4.70;;;;;;;10.66;50.11;100008.69;6880509;28;20208;-88
2022/01/30 11:00:02;;;;;;;16.43;4.53;;;;;;;11.46;47.73;100004.59;6880531;28;20232;-88
2022/01/30 11:03:44;;;;;;;6.83;3.63;;;;;;;11.49;45.83;100002.38;6880733;28;20229;-88
2022/01/30 11:07:07;;;;;;;9.13;3.63;;;;;;;11.69;45.36;99989.25;6877269;28;20292;-89
2022/01/30 11:10:31;;;;;;;11.30;3.97;;;;;;;12.13;43.82;99998.22;6867761;28;20205;-90
2022/01/30 11:14:14;;;;;;;15.50;7.97;;;;;;;12.04;42.08;99983.94;6867498;28;20219;-90
2022/01/30 11:17:36;;;;;;;10.47;5.60;;;;;;;11.93;42.96;99989.00;6867146;28;20212;-90
2022/01/30 11:20:57;;;;;;;14.23;11.23;;;;;;;11.49;42.74;99998.81;6866537;28;20253;-90
2022/01/30 11:24:21;;;;;;;15.20;5.13;;;;;;;11.89;41.69;99983.13;6864782;28;20696;-89
2022/01/30 11:27:44;;;;;;;11.90;3.57;;;;;;;11.77;42.30;99981.88;6864428;28;20718;-91
2022/01/30 11:31:05;;;;;;;13.93;5.87;;;;;;;12.07;41.44;99958.41;6862370;28;20236;-90
2022/01/30 11:34:27;;;;;;;10.40;4.67;;;;;;;12.39;41.20;99975.09;6863760;28;20212;-87
2022/01/30 11:37:50;;;;;;;9.73;3.73;;;;;;;12.18;41.36;99966.91;6863381;28;20219;-90
2022/01/30 11:41:14;;;;;;;9.67;4.10;;;;;;;12.52;40.86;99961.72;6864278;28;20248;-87
2022/01/30 11:44:36;;;;;;;12.87;4.07;;;;;;;12.03;41.70;99952.53;6863565;28;20280;-89
2022/01/30 11:48:01;;;;;;;9.80;3.90;;;;;;;12.67;40.47;99945.44;6863380;28;20208;-89
2022/01/30 11:51:23;;;;;;;15.33;3.90;;;;;;;12.73;41.41;99937.41;6865663;28;20643;-88
2022/01/30 11:54:47;;;;;;;11.67;4.03;;;;;;;12.70;40.78;99904.50;6865080;28;20209;-87
2022/01/30 11:58:55;;;;;;;12.37;3.90;;;;;;;12.27;41.76;99930.63;6866949;28;20597;-87
2022/01/30 12:02:23;;;;;;;10.83;3.97;;;;;;;13.13;40.98;99936.84;6866563;28;20237;-86
2022/01/30 12:05:45;;;;;;;12.50;4.03;;;;;;;12.91;40.50;99882.84;6866589;28;20216;-86
2022/01/30 12:09:20;;;;;;;7.47;3.17;;;;;;;12.69;40.24;99922.59;6872570;28;20213;-86
2022/01/30 12:12:48;;;;;;;10.20;3.70;;;;;;;12.42;40.79;99917.91;6872411;28;20238;-87
2022/01/30 12:16:44;;;;;;;10.97;4.13;;;;;;;12.33;42.13;99921.75;6871916;28;20812;-87
2022/01/30 12:20:28;;;;;;;11.70;4.13;;;;;;;12.53;41.77;99911.16;6866523;28;20349;-88
2022/01/30 12:23:52;;;;;;;12.53;4.50;;;;;;;13.19;41.28;99924.38;6864202;28;20228;-88
2022/01/30 12:27:13;;;;;;;12.37;3.87;;;;;;;12.92;40.51;99915.13;6866958;28;20220;-88
2022/01/30 12:30:37;;;;;;;10.97;5.40;;;;;;;12.65;40.88;99913.19;6866380;28;20232;-87
2022/01/30 12:34:02;;;;;;;7.80;3.43;;;;;;;12.80;40.20;99913.97;6866559;28;20204;-88
2022/01/30 12:37:26;;;;;;;9.07;3.70;;;;;;;12.57;40.04;99902.47;6867209;28;20554;-88
2022/01/30 12:40:47;;;;;;;8.63;3.67;;;;;;;13.07;39.51;99910.53;6869805;28;20231;-88
2022/01/30 12:44:11;;;;;;;13.10;3.67;;;;;;;12.74;39.92;99925.56;6892484;28;20265;-88
2022/01/30 12:47:46;;;;;;;10.37;3.40;;;;;;;13.12;39.92;99924.34;6893156;28;20268;-88
2022/01/30 12:51:14;;;;;;;10.50;3.77;;;;;;;12.40;39.76;99887.50;6896143;28;20315;-87
2022/01/30 12:54:38;;;;;;;9.23;3.80;;;;;;;13.45;39.11;99916.50;6890758;28;20478;-86
2022/01/30 12:58:00;;;;;;;6.43;3.73;;;;;;;13.25;39.23;99910.06;6866535;28;20265;-86
2022/01/30 13:01:25;;;;;;;7.70;3.53;;;;;;;12.81;40.44;99899.41;6880390;28;20229;-84
2022/01/30 13:04:47;;;;;;;10.70;3.47;;;;;;;12.84;39.72;99901.75;6881252;28;20295;-85
2022/01/30 13:08:10;;;;;;;14.30;3.50;;;;;;;12.79;40.56;99911.44;6869181;28;20225;-85
2022/01/30 13:11:32;;;;;;;10.10;3.70;;;;;;;12.99;39.44;99916.06;6869762;28;20227;-85
2022/01/30 13:14:53;;;;;;;10.40;3.90;;;;;;;12.78;39.40;99904.38;6869561;28;20209;-85
2022/01/30 13:18:16;;;;;;;10.83;3.43;;;;;;;13.21;39.03;99919.63;6868942;28;20218;-85
2022/01/30 13:21:39;;;;;;;9.23;3.40;;;;;;;13.36;38.66;99902.25;6869231;28;20228;-85
2022/01/30 13:25:03;;;;;;;8.53;3.60;;;;;;;13.83;37.31;99907.81;6869512;28;20245;-85
2022/01/30 13:28:25;;;;;;;10.03;4.60;;;;;;;13.13;37.83;99896.22;6869698;28;20206;-85
2022/01/30 13:31:48;;;;;;;14.47;4.33;;;;;;;12.93;38.31;99905.16;6868468;28;20237;-84
2022/01/30 13:35:14;;;;;;;9.20;5.60;;;;;;;12.94;37.25;99887.88;6869294;28;20211;-85
2022/01/30 13:38:41;;;;;;;10.00;4.00;;;;;;;12.88;36.90;99875.13;6869394;28;20240;-84
2022/01/30 13:49:54;;;;;;;11.83;4.00;;;;;;;13.47;37.30;99869.22;6868895;28;20201;-86
2022/01/30 13:53:24;;;;;;;11.50;3.93;;;;;;;13.96;35.85;99894.31;6870760;28;20233;-85
2022/01/30 13:57:00;;;;;;;13.53;3.83;;;;;;;12.82;37.39;99886.72;6869848;28;20213;-84
2022/01/30 14:00:24;;;;;;;8.97;3.30;;;;;;;12.99;37.22;99883.56;6870895;28;20243;-85
2022/01/30 14:03:47;;;;;;;11.23;4.20;;;;;;;12.60;37.95;99885.03;6870574;28;20861;-85
2022/01/30 14:07:21;;;;;;;8.80;3.57;;;;;;;11.94;38.23;99893.38;6870621;28;20214;-84
2022/01/30 14:10:44;;;;;;;7.87;3.70;;;;;;;11.46;39.31;99861.47;6870321;28;20736;-87
2022/01/30 14:14:07;;;;;;;9.27;4.67;;;;;;;12.27;37.82;99900.88;6869559;28;20228;-86
2022/01/30 14:17:30;;;;;;;10.80;6.13;;;;;;;12.39;38.47;99896.66;6869954;28;20644;-87
2022/01/30 14:21:01;;;;;;;8.40;4.13;;;;;;;12.22;37.93;99897.06;6870270;28;20251;-86
2022/01/30 14:28:40;;;;;;;9.90;2.87;;;;;;;12.39;38.16;99880.41;6790650;29;20210;-87
2022/01/30 14:49:05;;;;;;;9.23;3.43;;;;;;;11.95;39.67;99884.22;6727551;29;20218;-87
2022/01/30 14:52:27;;;;;;;8.90;2.93;;;;;;;12.19;38.13;99889.31;6784694;29;20234;-87
2022/01/30 14:55:48;;;;;;;9.03;4.03;;;;;;;11.87;38.43;99882.44;6785689;29;20358;-87
2022/01/30 14:59:10;;;;;;;11.63;3.40;;;;;;;11.84;39.27;99884.69;6786854;29;20326;-87
2022/01/30 15:02:33;;;;;;;11.67;3.50;;;;;;;12.04;38.76;99875.81;6787506;29;20230;-87
2022/01/30 15:05:55;;;;;;;9.57;3.10;;;;;;;11.88;38.73;99872.50;6807760;29;20272;-87
2022/01/30 15:09:17;;;;;;;11.53;3.43;;;;;;;11.97;39.12;99877.59;6813067;29;20269;-88
2022/01/30 15:12:41;;;;;;;7.57;3.07;;;;;;;11.85;38.97;99870.16;6836156;28;20275;-88
2022/01/30 15:16:07;;;;;;;7.50;2.70;;;;;;;11.28;39.77;99855.59;6864521;28;20239;-88
2022/01/30 15:19:30;;;;;;;12.93;3.40;;;;;;;11.67;39.48;99845.38;6865321;28;20700;-89
2022/01/30 15:22:51;;;;;;;7.33;3.40;;;;;;;11.85;39.81;99837.72;6886502;28;20699;-89
2022/01/30 15:26:13;;;;;;;11.63;3.93;;;;;;;11.47;40.00;99809.13;6885545;28;20212;-88
2022/01/30 15:29:35;;;;;;;11.70;4.10;;;;;;;11.52;41.09;99856.16;6886690;28;20207;-89
2022/01/30 15:32:56;;;;;;;8.53;3.70;;;;;;;11.56;40.93;99851.25;6874818;28;20375;-89
2022/01/30 15:36:19;;;;;;;18.17;6.23;;;;;;;11.67;40.45;99856.19;6887522;28;20199;-87
2022/01/30 15:39:41;;;;;;;10.40;5.40;;;;;;;11.01;41.74;99853.47;6865024;28;20237;-89
2022/01/30 15:43:03;;;;;;;10.30;4.80;;;;;;;11.47;41.43;99849.63;6865820;28;20229;-88
2022/01/30 15:50:05;;;;;;;12.40;4.27;;;;;;;11.54;41.09;99835.22;6866095;28;20684;-89
2022/01/30 15:53:28;;;;;;;9.87;3.67;;;;;;;11.65;41.42;99833.94;6866779;28;20225;-89
2022/01/30 15:56:50;;;;;;;9.57;3.47;;;;;;;11.26;40.84;99826.06;6867257;28;20249;-89
2022/01/30 16:00:13;;;;;;;9.70;3.67;;;;;;;11.30;41.02;99818.44;6867739;28;20224;-89
2022/01/30 16:03:35;;;;;;;10.30;4.37;;;;;;;11.60;40.80;99830.94;6868435;28;20216;-87
2022/01/30 16:06:56;;;;;;;11.90;3.23;;;;;;;11.29;41.46;99812.22;6868665;28;20205;-88
2022/01/30 16:10:22;;;;;;;12.73;5.00;;;;;;;10.92;41.22;99782.56;6869808;28;20213;-90
2022/01/30 16:17:23;;;;;;;9.33;4.93;;;;;;;11.29;41.72;99822.16;6875104;28;20205;-90
2022/01/30 16:20:46;;;;;;;9.40;5.13;;;;;;;10.43;41.50;99732.78;6874121;28;20235;-89
2022/01/30 16:24:08;;;;;;;13.30;4.57;;;;;;;10.67;42.04;99835.06;6873393;28;20408;-89
2022/01/30 16:27:31;;;;;;;7.57;3.60;;;;;;;10.64;41.96;99794.13;6895787;28;20201;-89
2022/01/30 16:30:52;;;;;;;14.37;4.57;;;;;;;10.73;42.04;99852.34;6899428;28;20247;-91
2022/01/30 16:34:14;;;;;;;13.67;6.50;;;;;;;10.86;42.09;99849.91;6899866;28;20690;-90
2022/01/30 16:37:36;;;;;;;20.03;7.40;;;;;;;10.44;42.84;99812.66;6900217;28;20219;-89
2022/01/30 16:40:58;;;;;;;14.93;6.73;;;;;;;9.89;42.86;99733.84;6902295;28;20236;-89
2022/01/30 16:44:24;;;;;;;15.10;5.40;;;;;;;10.43;42.98;99800.19;6903756;28;20569;-88
2022/01/30 16:47:59;;;;;;;11.63;4.83;;;;;;;10.39;42.82;99855.47;6904979;28;20212;-89
2022/01/30 16:51:21;;;;;;;11.63;5.10;;;;;;;10.36;43.05;99822.63;6905063;28;20217;-90
2022/01/30 16:54:43;;;;;;;8.00;4.40;;;;;;;10.63;42.54;99844.50;6908224;28;20736;-90
2022/01/30 16:58:06;;;;;;;12.20;4.57;;;;;;;10.19;42.71;99767.16;6899139;28;20228;-92
2022/01/30 17:01:29;;;;;;;9.77;4.67;;;;;;;10.81;42.23;99831.56;6898071;28;20246;-91
2022/01/30 17:04:51;;;;;;;10.10;4.67;;;;;;;9.97;42.16;99762.56;6898676;28;20200;-90
2022/01/30 17:08:18;;;;;;;12.30;5.13;;;;;;;10.36;42.04;99790.28;6900542;28;20211;-90
2022/01/30 17:11:49;;;;;;;9.93;4.97;;;;;;;10.48;42.08;99813.13;6900483;28;20236;-91
2022/01/30 17:15:11;;;;;;;11.07;4.53;;;;;;;10.33;42.29;99807.66;6899540;28;20665;-90
2022/01/30 17:18:34;;;;;;;13.90;5.93;;;;;;;10.38;41.95;99778.31;6899182;28;20212;-91
2022/01/30 17:21:56;;;;;;;11.57;4.47;;;;;;;10.66;41.89;99840.63;6899303;28;20228;-90
2022/01/30 17:25:48;;;;;;;12.77;4.97;;;;;;;10.34;42.05;99800.44;6906312;28;20209;-89
2022/01/30 17:29:22;;;;;;;11.83;5.50;;;;;;;10.51;41.86;99797.41;6908194;28;20204;-87
2022/01/30 17:32:45;;;;;;;13.00;6.93;;;;;;;10.54;41.51;99793.53;6906476;28;20262;-89
2022/01/30 17:36:08;;;;;;;9.83;5.00;;;;;;;10.41;41.91;99775.28;6901017;28;20211;-89
2022/01/30 17:39:31;;;;;;;16.20;6.20;;;;;;;10.24;42.25;99776.41;6904198;28;20227;-87
2022/01/30 17:42:56;;;;;;;11.13;5.30;;;;;;;10.31;42.31;99790.00;6908489;28;20230;-87
2022/01/30 17:46:18;;;;;;;13.40;8.63;;;;;;;10.24;42.70;99791.72;6908611;28;20209;-87
2022/01/30 17:49:40;;;;;;;21.13;10.33;;;;;;;10.50;42.59;99819.19;6918512;28;20200;-87
2022/01/30 17:53:04;;;;;;;9.13;6.63;;;;;;;10.29;42.67;99794.72;6934027;28;20223;-89
2022/01/30 17:56:25;;;;;;;14.07;6.87;;;;;;;10.43;42.86;99807.41;6908137;28;20237;-90
2022/01/30 17:59:47;;;;;;;14.07;8.20;;;;;;;10.38;42.66;99807.13;6924074;28;20230;-88
2022/01/30 18:03:10;;;;;;;14.83;7.80;;;;;;;10.13;43.86;99817.25;6923952;28;20220;-89
2022/01/30 18:06:32;;;;;;;15.27;6.60;;;;;;;9.81;44.41;99779.66;6930525;28;20208;-89
2022/01/30 18:13:54;;;;;;;13.63;6.30;;;;;;;9.79;44.93;99807.78;6917587;28;20675;-88
2022/01/30 18:17:16;;;;;;;16.50;5.80;;;;;;;9.92;44.29;99810.78;6930993;28;20190;-87
2022/01/30 18:20:38;;;;;;;13.70;6.10;;;;;;;9.58;44.73;99769.88;6926325;28;20231;-88
2022/01/30 18:23:59;;;;;;;11.87;5.07;;;;;;;8.93;46.07;99781.84;6904385;28;20212;-88
2022/01/30 18:27:23;;;;;;;12.77;5.50;;;;;;;9.34;45.41;99781.56;6928371;28;20214;-87
2022/01/30 18:30:44;;;;;;;14.27;9.13;;;;;;;9.13;45.99;99787.69;6921634;28;20252;-88
2022/01/30 18:34:06;;;;;;;15.83;8.40;;;;;;;9.60;45.38;99809.06;6920657;28;20204;-88
2022/01/30 18:37:32;;;;;;;15.97;8.20;;;;;;;9.45;45.48;99785.75;6927218;28;20215;-88
2022/01/30 18:40:58;;;;;;;11.00;5.03;;;;;;;9.22;45.73;99792.88;6925436;28;20237;-88
2022/01/30 18:44:21;;;;;;;11.73;5.90;;;;;;;9.36;45.70;99762.56;6930220;28;20212;-88
2022/01/30 18:47:43;;;;;;;14.33;8.03;;;;;;;9.28;45.37;99743.75;6937604;28;20212;-87
2022/01/30 18:51:04;;;;;;;15.43;6.30;;;;;;;9.32;44.95;99716.31;6925455;28;20228;-89
2022/01/30 18:54:26;;;;;;;9.67;6.60;;;;;;;8.46;47.99;99766.59;6924482;28;20317;-89
2022/01/30 18:57:48;;;;;;;15.20;7.07;;;;;;;8.41;47.49;99694.56;6930698;28;20207;-88
2022/01/30 19:01:11;;;;;;;10.83;6.00;;;;;;;9.02;46.89;99754.75;6936245;28;20237;-88
2022/01/30 19:04:34;;;;;;;18.03;8.77;;;;;;;8.21;48.43;99755.03;6930662;28;20232;-88
2022/01/30 19:07:55;;;;;;;17.33;8.53;;;;;;;8.42;47.83;99725.78;6890656;28;20662;-87
2022/01/30 19:11:17;;;;;;;13.90;6.40;;;;;;;8.64;48.01;99745.75;6922376;28;20222;-87
2022/01/30 19:14:39;;;;;;;14.53;7.93;;;;;;;8.49;46.81;99697.22;6922739;28;20211;-88
2022/01/30 19:18:02;;;;;;;20.37;12.40;;;;;;;7.80;48.74;99694.19;6922171;28;20214;-88
2022/01/30 19:21:24;;;;;;;22.13;13.60;;;;;;;8.72;47.75;99732.31;6921841;28;20231;-86
2022/01/30 19:24:45;;;;;;;21.13;8.90;;;;;;;8.29;47.26;99650.25;6902838;28;20204;-87
2022/01/30 19:28:09;;;;;;;18.20;9.60;;;;;;;8.66;47.51;99672.00;6892925;28;20276;-88
2022/01/30 19:31:30;;;;;;;22.03;8.10;;;;;;;8.48;47.94;99710.84;6893059;28;20582;-87
2022/01/30 19:34:53;;;;;;;12.33;8.23;;;;;;;8.56;47.75;99703.63;6894659;28;20203;-88
2022/01/30 19:38:15;;;;;;;13.30;6.70;;;;;;;7.93;48.43;99673.06;6895168;28;20703;-87
2022/01/30 19:41:38;;;;;;;18.70;8.73;;;;;;;7.82;49.01;99638.50;6896765;28;20231;-87
2022/01/30 19:45:01;;;;;;;16.07;6.57;;;;;;;8.47;46.61;99647.34;6895333;28;20210;-87
2022/01/30 19:48:22;;;;;;;18.40;10.30;;;;;;;8.48;47.00;99692.88;6897518;28;20204;-84
2022/01/30 19:51:45;;;;;;;16.13;6.27;;;;;;;7.33;49.91;99702.97;6898755;28;20230;-88
2022/01/30 19:55:08;;;;;;;15.27;6.50;;;;;;;7.14;50.69;99630.84;6885812;28;20217;-85
2022/01/30 19:58:31;;;;;;;20.67;9.83;;;;;;;7.67;48.54;99633.97;6892040;28;20619;-87
2022/01/30 20:01:53;;;;;;;20.50;11.27;;;;;;;6.20;51.94;99661.34;6895618;28;20248;-86
2022/01/30 20:05:14;;;;;;;24.03;11.10;;;;;;;6.53;50.76;99584.69;6895874;28;20202;-87
2022/01/30 20:08:37;;;;;;;19.70;10.50;;;;;;;6.39;52.09;99657.63;6892883;28;20352;-88
2022/01/30 20:11:59;;;;;;;19.53;10.87;;;;;;;6.79;51.90;99669.38;6893139;28;20248;-86
2022/01/30 20:15:22;;;;;;;23.43;11.43;;;;;;;5.89;54.94;99573.66;6893138;28;20304;-86
2022/01/30 20:18:45;;;;;;;21.50;11.63;;;;;;;6.71;52.38;99575.56;6893539;28;20262;-85
2022/01/30 20:22:07;;;;;;;15.53;9.73;;;;;;;7.41;50.16;99628.72;6881992;28;20239;-86
2022/01/30 20:25:30;;;;;;;13.70;7.03;;;;;;;6.98;49.65;99607.50;6866802;28;20222;-86
2022/01/30 20:28:52;;;;;;;24.43;11.83;;;;;;;5.81;53.88;99644.00;6870247;28;20613;-86
2022/01/30 20:32:14;;;;;;;17.70;9.60;;;;;;;6.19;52.84;99638.25;6871677;28;20255;-83
2022/01/30 20:35:36;;;;;;;19.23;10.23;;;;;;;5.42;54.06;99534.81;6872889;28;20222;-84
2022/01/30 20:38:58;;;;;;;16.90;8.40;;;;;;;6.25;53.31;99642.97;6873205;28;20204;-84
2022/01/30 20:42:21;;;;;;;21.53;9.90;;;;;;;6.11;53.28;99587.34;6894233;28;20450;-84
2022/01/30 20:45:43;;;;;;;16.80;8.37;;;;;;;6.09;52.94;99585.81;6916734;28;20183;-87
2022/01/30 20:49:05;;;;;;;16.87;8.10;;;;;;;6.19;52.86;99630.22;6907922;28;20202;-86
2022/01/30 20:52:27;;;;;;;20.67;9.23;;;;;;;6.18;51.99;99606.28;6899492;28;20596;-85
2022/01/30 20:55:49;;;;;;;22.20;12.53;;;;;;;5.60;55.53;99591.78;6891455;28;20218;-84
2022/01/30 20:59:12;;;;;;;24.20;11.53;;;;;;;5.96;53.83;99604.94;6895180;28;20205;-83
2022/01/30 21:02:35;;;;;;;14.17;7.50;;;;;;;6.18;52.84;99609.78;6894571;28;20293;-84
2022/01/30 21:05:58;;;;;;;15.00;7.07;;;;;;;6.14;52.50;99612.94;6892507;28;20716;-84
2022/01/30 21:09:20;;;;;;;12.17;6.90;;;;;;;6.19;52.38;99576.66;6891844;28;20576;-84
2022/01/30 21:12:43;;;;;;;14.70;7.60;;;;;;;6.27;51.88;99565.16;6895791;28;20357;-88
2022/01/30 21:16:06;;;;;;;14.40;6.37;;;;;;;6.18;52.73;99582.19;6895452;28;20210;-84
2022/01/30 21:19:30;;;;;;;12.73;6.47;;;;;;;5.91;53.59;99579.66;6897440;28;20587;-87
2022/01/30 21:22:51;;;;;;;20.53;7.07;;;;;;;5.72;53.55;99580.66;6897856;28;20241;-86